KORD Chicago Approach - VHF - Chicago, IL

Save this radio to your Streema Favorites

Live ATC (Air Traffic Control) Communications

Ads by Google AdSense

KORD Chicago Approach Info

KORD Chicago Approach is an Air traffic web based internet radio station from Chicago, IL.

Visit the Radio's website

Contact: http://www.liveatc.net/ct/contact.php

Playlist

KORD 170351Z 16012KT 10SM BKN160 07/M05 A3016 RMK AO2 PK WND 14027/0253 SLP217 T00721050 $

26 minutes ago.

KORD 170251Z 14019G27KT 10SM SCT180 BKN220 08/M05 A3013 RMK AO2 PK WND 15027/0247 SLP206 T00831050 51003 $

1 hour, 26 minutes ago.

More played songs

Wall

Guest

Guest

AHA Am i suppose to write something

Aug. 6, 2013, 8:33 p.m. GMT

Reviews - Rate this station:

No reviews yet. Be the first to post one

Sign Up for Streema

If you want to save the KORD Chicago Approach live stream, start sharing stations with friends, or engage in a deeper Streema experience, please sign up below.

By clicking Sign up, you are indicating that you have read and agree to the Terms of Service and Privacy Policy.

Streema Mobile

We've developed a mobile website for iOS (iPhone, iPad, iPod) and Android devices. Native apps coming soon!

You can check it out by visiting our mobile radio site from your phone or tablet's mobile browser - it's free, no download required.

For more information go to our Mobile Support .

In other languages

See this page in French: Ecouter KORD Chicago Approach en ligne

Playlist, tracklist, top songs played coming soon...

PC requires Windows Media Player - Mac additionally requires Real Player - See FAQs for more info on how to listen to live streaming radio.